createdAt,value
2023-05-02T00:00:13.477Z,101785.56
2023-05-02T00:00:45.542Z,101790.69
2023-05-02T00:01:17.284Z,101782.50
2023-05-02T00:01:48.900Z,101790.81
2023-05-02T00:02:21.001Z,101782.25
2023-05-02T00:02:52.984Z,101788.84
2023-05-02T00:03:25.636Z,101784.97
2023-05-02T00:03:57.351Z,101787.84
2023-05-02T00:04:29.250Z,101785.31
2023-05-02T00:05:01.472Z,101783.34
2023-05-02T00:05:33.011Z,101789.56
2023-05-02T00:06:04.584Z,101777.69
2023-05-02T00:06:36.434Z,101777.31
2023-05-02T00:07:08.171Z,101783.81
2023-05-02T00:07:39.864Z,101785.44
2023-05-02T00:08:12.325Z,101786.31
2023-05-02T00:08:43.997Z,101781.84
2023-05-02T00:09:16.006Z,101786.16
2023-05-02T00:09:47.566Z,101779.03
2023-05-02T00:10:19.326Z,101784.97
2023-05-02T00:10:50.915Z,101785.53
2023-05-02T00:11:24.430Z,101791.00
2023-05-02T00:11:56.049Z,101783.13
2023-05-02T00:12:27.586Z,101785.31
2023-05-02T00:12:59.338Z,101791.75
2023-05-02T00:13:30.865Z,101787.94
2023-05-02T00:14:02.404Z,101794.72
2023-05-02T00:14:34.020Z,101784.28
2023-05-02T00:15:06.313Z,101786.28
2023-05-02T00:15:37.833Z,101783.47
2023-05-02T00:16:09.773Z,101793.34
2023-05-02T00:16:41.546Z,101787.81
2023-05-02T00:17:19.856Z,101788.13
2023-05-02T00:17:56.299Z,101788.34
2023-05-02T00:18:27.932Z,101780.47
2023-05-02T00:18:59.460Z,101790.78
2023-05-02T00:19:30.962Z,101787.72
2023-05-02T00:20:04.523Z,101788.59
2023-05-02T00:20:36.133Z,101786.38
2023-05-02T00:21:10.057Z,101791.94
2023-05-02T00:21:41.657Z,101785.97
2023-05-02T00:22:13.417Z,101789.69
2023-05-02T00:22:44.994Z,101791.31
2023-05-02T00:23:16.543Z,101786.41
2023-05-02T00:23:48.085Z,101785.28
2023-05-02T00:24:19.656Z,101784.44
2023-05-02T00:24:53.726Z,101789.47
2023-05-02T00:25:25.341Z,101786.47
2023-05-02T00:25:56.910Z,101783.34
2023-05-02T00:26:29.016Z,101784.44
2023-05-02T00:27:00.846Z,101783.63
2023-05-02T00:27:33.235Z,101786.72
2023-05-02T00:28:04.952Z,101789.34
2023-05-02T00:28:36.619Z,101783.75
2023-05-02T00:29:08.288Z,101780.69
2023-05-02T00:29:48.565Z,101792.13
2023-05-02T00:30:21.193Z,101782.72
2023-05-02T00:30:53.893Z,101780.31
2023-05-02T00:31:25.688Z,101796.16
2023-05-02T00:31:58.078Z,101787.78
2023-05-02T00:32:29.727Z,101791.41
2023-05-02T00:33:01.264Z,101789.81
2023-05-02T00:33:32.936Z,101789.44
2023-05-02T00:34:05.034Z,101792.88
2023-05-02T00:34:36.566Z,101790.22
2023-05-02T00:35:08.744Z,101784.25
2023-05-02T00:35:40.744Z,101791.69
2023-05-02T00:36:19.436Z,101790.00
2023-05-02T00:36:51.135Z,101785.06
2023-05-02T00:37:27.199Z,101787.44
2023-05-02T00:37:59.708Z,101784.06
2023-05-02T00:38:31.498Z,101794.59
2023-05-02T00:39:04.128Z,101791.88
2023-05-02T00:39:35.964Z,101789.88
2023-05-02T00:40:08.220Z,101791.91
2023-05-02T00:40:47.712Z,101793.16
2023-05-02T00:41:19.304Z,101791.72
2023-05-02T00:41:59.816Z,101796.09
2023-05-02T00:42:34.650Z,101798.63
2023-05-02T00:43:06.368Z,101799.50
2023-05-02T00:43:39.634Z,101793.28
2023-05-02T00:44:11.609Z,101800.25
2023-05-02T00:44:43.305Z,101794.16
2023-05-02T00:45:14.947Z,101794.84
2023-05-02T00:45:46.728Z,101788.69
2023-05-02T00:46:18.633Z,101792.63
2023-05-02T00:46:50.915Z,101797.38
2023-05-02T00:47:22.542Z,101793.88
2023-05-02T00:47:54.130Z,101799.88
2023-05-02T00:48:26.429Z,101794.94
2023-05-02T00:48:57.966Z,101794.06
2023-05-02T00:49:30.378Z,101787.78
2023-05-02T00:50:02.657Z,101788.53
2023-05-02T00:50:36.668Z,101795.56
2023-05-02T00:51:13.029Z,101792.13
2023-05-02T00:51:44.643Z,101794.22
2023-05-02T00:52:16.427Z,101793.38
2023-05-02T00:52:48.459Z,101790.81
2023-05-02T00:53:20.197Z,101799.53
2023-05-02T00:53:52.475Z,101801.25
2023-05-02T00:54:24.154Z,101793.06
2023-05-02T00:54:55.950Z,101792.38
2023-05-02T00:55:27.689Z,101794.94
2023-05-02T00:55:59.736Z,101784.00
2023-05-02T00:56:31.374Z,101792.00
2023-05-02T00:57:03.229Z,101796.69
2023-05-02T00:57:34.881Z,101797.06
2023-05-02T00:58:11.959Z,101801.88
2023-05-02T00:58:44.031Z,101793.47
2023-05-02T00:59:16.020Z,101793.94
2023-05-02T00:59:47.689Z,101795.97
2023-05-02T01:00:19.415Z,101799.63
2023-05-02T01:01:02.780Z,101801.81
2023-05-02T01:02:02.852Z,101794.56
2023-05-02T01:02:45.721Z,101798.47
2023-05-02T01:04:04.837Z,101795.31
2023-05-02T01:05:14.076Z,101800.00
2023-05-02T01:06:11.927Z,101798.88
2023-05-02T01:06:46.375Z,101800.91
2023-05-02T01:07:26.862Z,101798.00
2023-05-02T01:08:09.178Z,101806.66
2023-05-02T01:08:50.219Z,101803.34
2023-05-02T01:09:35.888Z,101800.03
2023-05-02T01:10:46.035Z,101803.06
2023-05-02T01:11:25.709Z,101798.13
2023-05-02T01:12:16.939Z,101806.63
2023-05-02T01:13:00.040Z,101804.59
2023-05-02T01:13:35.470Z,101802.88
2023-05-02T01:14:09.150Z,101812.81
2023-05-02T01:14:42.728Z,101806.09
2023-05-02T01:15:17.794Z,101802.25
2023-05-02T01:15:51.823Z,101806.56
2023-05-02T01:16:24.157Z,101803.94
2023-05-02T01:16:56.971Z,101800.97
2023-05-02T01:17:32.637Z,101801.69
2023-05-02T01:18:05.720Z,101802.31
2023-05-02T01:18:40.186Z,101803.47
2023-05-02T01:19:19.905Z,101799.66
2023-05-02T01:20:13.804Z,101806.28
2023-05-02T01:20:46.678Z,101800.47
2023-05-02T01:21:18.321Z,101807.38
2023-05-02T01:21:51.356Z,101803.16
2023-05-02T01:22:25.455Z,101810.47
2023-05-02T01:23:03.684Z,101809.97
2023-05-02T01:24:01.529Z,101812.31
2023-05-02T01:24:40.428Z,101810.44
2023-05-02T01:25:18.435Z,101802.78
2023-05-02T01:26:00.190Z,101811.78
2023-05-02T01:26:50.103Z,101810.16
2023-05-02T01:27:27.639Z,101801.88
2023-05-02T01:28:38.528Z,101806.22
2023-05-02T01:29:11.607Z,101810.78
2023-05-02T01:29:44.029Z,101802.31
2023-05-02T01:30:16.469Z,101805.78
2023-05-02T01:30:51.694Z,101803.06
2023-05-02T01:31:25.555Z,101801.69
2023-05-02T01:31:58.914Z,101800.84
2023-05-02T01:32:33.433Z,101810.28
2023-05-02T01:33:08.705Z,101804.28
2023-05-02T01:33:40.574Z,101803.50
2023-05-02T01:34:12.334Z,101802.78
2023-05-02T01:34:45.672Z,101799.50
2023-05-02T01:35:18.372Z,101802.09
2023-05-02T01:35:51.935Z,101800.09
2023-05-02T01:36:27.023Z,101807.44
2023-05-02T01:37:01.117Z,101804.41
2023-05-02T01:37:33.350Z,101801.91
2023-05-02T01:38:06.103Z,101804.72
2023-05-02T01:38:39.203Z,101804.28
2023-05-02T01:39:14.604Z,101810.53
2023-05-02T01:39:47.015Z,101807.25
2023-05-02T01:40:21.682Z,101809.75
2023-05-02T01:40:53.969Z,101806.91
2023-05-02T01:41:27.366Z,101799.25
2023-05-02T01:41:59.449Z,101808.75
2023-05-02T01:42:32.885Z,101807.34
2023-05-02T01:43:05.964Z,101810.38
2023-05-02T01:43:37.959Z,101805.88
2023-05-02T01:44:10.106Z,101807.44
2023-05-02T01:44:43.043Z,101809.38
2023-05-02T01:45:15.195Z,101808.75
2023-05-02T01:45:49.198Z,101812.66
2023-05-02T01:46:21.609Z,101814.25
2023-05-02T01:46:53.854Z,101808.97
2023-05-02T01:47:26.745Z,101815.59
2023-05-02T01:47:58.592Z,101815.09
2023-05-02T01:48:30.275Z,101808.94
2023-05-02T01:49:04.798Z,101813.81
2023-05-02T01:49:37.542Z,101814.22
2023-05-02T01:50:10.940Z,101807.28
2023-05-02T01:50:44.599Z,101814.19
2023-05-02T01:51:18.894Z,101812.34
2023-05-02T01:51:51.704Z,101808.25
2023-05-02T01:52:23.763Z,101808.66
2023-05-02T01:52:56.331Z,101811.69
2023-05-02T01:53:29.164Z,101811.78
2023-05-02T01:54:05.664Z,101812.00
2023-05-02T01:54:37.881Z,101809.88
2023-05-02T01:55:12.513Z,101811.97
2023-05-02T01:55:45.411Z,101808.13
2023-05-02T01:56:19.607Z,101810.53
2023-05-02T01:56:52.235Z,101806.47
2023-05-02T01:57:24.757Z,101806.22
2023-05-02T01:57:56.823Z,101799.50
2023-05-02T01:58:29.676Z,101806.06
2023-05-02T01:59:02.965Z,101808.16
2023-05-02T01:59:35.583Z,101813.94
2023-05-02T02:00:09.980Z,101812.97
2023-05-02T02:00:47.911Z,101818.97
2023-05-02T02:01:19.860Z,101813.34
2023-05-02T02:01:51.915Z,101813.84
2023-05-02T02:02:27.646Z,101811.81
2023-05-02T02:02:59.797Z,101815.63
2023-05-02T02:03:32.044Z,101814.47
2023-05-02T02:04:04.637Z,101819.94
2023-05-02T02:04:37.555Z,101812.81
2023-05-02T02:05:10.499Z,101818.78
2023-05-02T02:05:42.715Z,101815.53
2023-05-02T02:06:16.177Z,101817.50
2023-05-02T02:06:52.741Z,101822.84
2023-05-02T02:07:24.491Z,101817.13
2023-05-02T02:07:56.128Z,101829.31
2023-05-02T02:08:27.715Z,101821.38
2023-05-02T02:08:59.601Z,101828.34
2023-05-02T02:09:31.393Z,101829.94
2023-05-02T02:10:06.872Z,101831.19
2023-05-02T02:10:50.676Z,101832.97
2023-05-02T02:11:36.841Z,101838.94
2023-05-02T02:12:27.354Z,101841.09
2023-05-02T02:13:07.982Z,101836.84
2023-05-02T02:13:45.031Z,101842.84
2023-05-02T02:14:22.371Z,101840.41
2023-05-02T02:15:00.248Z,101841.44
2023-05-02T02:15:35.147Z,101853.53
2023-05-02T02:16:09.137Z,101846.94
2023-05-02T02:16:41.728Z,101851.91
2023-05-02T02:17:30.361Z,101850.75
2023-05-02T02:18:10.633Z,101854.59
2023-05-02T02:18:46.655Z,101859.50
2023-05-02T02:19:19.324Z,101868.75
2023-05-02T02:19:54.224Z,101851.25
2023-05-02T02:20:27.299Z,101859.88
2023-05-02T02:20:59.780Z,101854.09
2023-05-02T02:21:32.300Z,101857.03
2023-05-02T02:22:05.264Z,101865.59
2023-05-02T02:22:39.239Z,101854.09
2023-05-02T02:23:11.296Z,101867.03
2023-05-02T02:23:43.569Z,101857.59
2023-05-02T02:24:17.473Z,101860.25
2023-05-02T02:24:50.364Z,101863.84
2023-05-02T02:25:22.748Z,101863.41
2023-05-02T02:25:54.987Z,101858.41
2023-05-02T02:26:26.545Z,101859.72
2023-05-02T02:26:58.173Z,101860.91
2023-05-02T02:27:29.739Z,101863.19
2023-05-02T02:28:01.698Z,101863.41
2023-05-02T02:28:34.330Z,101865.97
2023-05-02T02:29:05.932Z,101862.72
2023-05-02T02:29:37.572Z,101864.56
2023-05-02T02:30:09.802Z,101865.97
2023-05-02T02:30:42.834Z,101865.13
2023-05-02T02:31:14.482Z,101869.72
2023-05-02T02:31:46.037Z,101855.69
2023-05-02T02:32:17.739Z,101864.75
2023-05-02T02:32:49.313Z,101867.59
2023-05-02T02:33:21.100Z,101865.19
2023-05-02T02:33:52.707Z,101866.34
2023-05-02T02:34:24.242Z,101871.03
2023-05-02T02:34:57.431Z,101864.56
2023-05-02T02:35:33.473Z,101863.09
2023-05-02T02:36:31.657Z,101862.56
2023-05-02T02:37:46.094Z,101859.63
2023-05-02T02:38:33.574Z,101866.47
2023-05-02T02:39:10.708Z,101852.59
2023-05-02T02:40:03.584Z,101866.41
2023-05-02T02:40:42.333Z,101861.28
2023-05-02T02:41:25.284Z,101866.25
2023-05-02T02:42:15.902Z,101868.00
2023-05-02T02:43:10.819Z,101876.91
2023-05-02T02:44:01.553Z,101868.75
2023-05-02T02:44:54.124Z,101875.69
2023-05-02T02:45:38.376Z,101872.00
2023-05-02T02:46:41.932Z,101871.34
2023-05-02T02:47:21.211Z,101881.19
2023-05-02T02:48:03.380Z,101873.31
2023-05-02T02:48:36.238Z,101874.34
2023-05-02T02:49:18.827Z,101880.72
2023-05-02T02:49:59.467Z,101881.94
2023-05-02T02:50:31.244Z,101881.56
2023-05-02T02:51:12.662Z,101885.88
2023-05-02T02:52:05.310Z,101890.38
2023-05-02T02:53:03.126Z,101895.69
2023-05-02T02:53:45.024Z,101892.31
2023-05-02T02:54:33.680Z,101896.06
2023-05-02T02:55:13.156Z,101900.13
2023-05-02T02:55:58.590Z,101889.84
2023-05-02T02:56:37.007Z,101893.72
2023-05-02T02:57:24.570Z,101902.19
2023-05-02T02:58:04.426Z,101895.63
2023-05-02T02:58:38.980Z,101901.78
2023-05-02T02:59:21.232Z,101905.88
2023-05-02T03:00:02.938Z,101910.78
2023-05-02T03:00:35.228Z,101903.41
2023-05-02T03:01:11.551Z,101906.34
2023-05-02T03:01:45.891Z,101903.59
2023-05-02T03:02:18.949Z,101903.69
2023-05-02T03:02:51.843Z,101904.53
2023-05-02T03:03:29.234Z,101901.72
2023-05-02T03:04:04.374Z,101905.31
2023-05-02T03:04:38.543Z,101902.63
2023-05-02T03:05:11.232Z,101911.34
2023-05-02T03:05:46.154Z,101904.38
2023-05-02T03:06:19.752Z,101907.41
2023-05-02T03:06:52.015Z,101911.16
2023-05-02T03:07:23.928Z,101906.19
2023-05-02T03:07:56.043Z,101903.91
2023-05-02T03:08:28.009Z,101904.25
2023-05-02T03:08:59.597Z,101906.28
2023-05-02T03:09:41.583Z,101908.38
2023-05-02T03:10:14.577Z,101907.09
2023-05-02T03:10:46.086Z,101908.19
2023-05-02T03:11:17.697Z,101911.50
2023-05-02T03:11:49.444Z,101912.41
2023-05-02T03:12:21.222Z,101911.91
2023-05-02T03:12:56.717Z,101912.78
2023-05-02T03:13:29.263Z,101922.91
2023-05-02T03:14:00.824Z,101919.16
2023-05-02T03:14:32.655Z,101915.00
2023-05-02T03:15:31.718Z,101920.50
2023-05-02T03:16:36.697Z,101916.31
2023-05-02T03:17:11.240Z,101921.44
2023-05-02T03:17:42.915Z,101917.97
2023-05-02T03:18:14.564Z,101913.09
2023-05-02T03:18:46.195Z,101928.31
2023-05-02T03:19:18.140Z,101926.28
2023-05-02T03:19:49.721Z,101926.97
2023-05-02T03:20:21.554Z,101920.25
2023-05-02T03:20:53.258Z,101927.41
2023-05-02T03:21:25.366Z,101928.41
2023-05-02T03:21:57.556Z,101926.94
2023-05-02T03:22:29.401Z,101933.25
2023-05-02T03:23:01.211Z,101925.47
2023-05-02T03:23:32.761Z,101932.44
2023-05-02T03:24:05.055Z,101927.13
2023-05-02T03:24:36.679Z,101934.72
2023-05-02T03:25:09.553Z,101932.88
2023-05-02T03:25:43.555Z,101940.16
2023-05-02T03:26:18.554Z,101935.72
2023-05-02T03:26:50.534Z,101931.16
2023-05-02T03:27:28.317Z,101933.28
2023-05-02T03:28:00.429Z,101935.94
2023-05-02T03:28:32.037Z,101932.88
2023-05-02T03:29:04.725Z,101939.97
2023-05-02T03:29:41.570Z,101931.34
2023-05-02T03:30:14.879Z,101938.44
2023-05-02T03:30:46.492Z,101936.84
2023-05-02T03:31:18.230Z,101936.66
2023-05-02T03:31:50.846Z,101941.44
2023-05-02T03:32:23.366Z,101937.88
2023-05-02T03:32:55.075Z,101939.53
2023-05-02T03:33:27.076Z,101947.94
2023-05-02T03:33:58.655Z,101946.59
2023-05-02T03:34:30.268Z,101945.38
2023-05-02T03:35:02.913Z,101944.38
2023-05-02T03:35:42.389Z,101948.88
2023-05-02T03:36:14.980Z,101952.00
2023-05-02T03:36:47.024Z,101949.44
2023-05-02T03:37:18.575Z,101950.28
2023-05-02T03:37:50.964Z,101953.00
2023-05-02T03:38:23.051Z,101954.28
2023-05-02T03:38:55.328Z,101949.06
2023-05-02T03:39:26.868Z,101951.81
2023-05-02T03:39:58.896Z,101952.97
2023-05-02T03:40:30.521Z,101951.44
2023-05-02T03:41:03.919Z,101954.00
2023-05-02T03:41:35.794Z,101951.88
2023-05-02T03:42:11.853Z,101951.19
2023-05-02T03:42:43.435Z,101955.69
2023-05-02T03:43:26.902Z,101954.84
2023-05-02T03:43:58.612Z,101955.31
2023-05-02T03:44:31.520Z,101945.94
2023-05-02T03:45:03.142Z,101952.47
2023-05-02T03:45:34.968Z,101955.50
2023-05-02T03:46:09.287Z,101956.13
2023-05-02T03:46:44.675Z,101955.22
2023-05-02T03:47:17.230Z,101952.09
2023-05-02T03:47:49.433Z,101959.31
2023-05-02T03:48:21.153Z,101958.31
2023-05-02T03:48:52.992Z,101957.13
2023-05-02T03:49:24.590Z,101959.53
2023-05-02T03:49:59.371Z,101951.88
2023-05-02T03:50:32.315Z,101961.25
2023-05-02T03:51:06.080Z,101953.91
2023-05-02T03:51:43.174Z,101957.50
2023-05-02T03:52:14.876Z,101960.97
2023-05-02T03:52:47.136Z,101966.41
2023-05-02T03:53:19.572Z,101957.88
2023-05-02T03:53:57.221Z,101964.47
2023-05-02T03:54:32.398Z,101959.59
2023-05-02T03:55:06.095Z,101970.25
2023-05-02T03:55:41.772Z,101965.41
2023-05-02T03:56:20.211Z,101972.53
2023-05-02T03:56:59.554Z,101970.25
2023-05-02T03:57:34.967Z,101970.63
2023-05-02T03:58:07.431Z,101969.59
2023-05-02T03:58:39.515Z,101965.94
2023-05-02T03:59:11.969Z,101971.63
2023-05-02T03:59:45.708Z,101968.78
2023-05-02T04:00:25.854Z,101969.97
2023-05-02T04:01:04.264Z,101972.28
2023-05-02T04:01:35.971Z,101974.66
2023-05-02T04:02:07.764Z,101973.28
2023-05-02T04:02:46.108Z,101970.72
2023-05-02T04:03:21.877Z,101972.19
2023-05-02T04:03:54.163Z,101973.47
2023-05-02T04:04:28.452Z,101981.44
2023-05-02T04:05:00.254Z,101971.50
2023-05-02T04:05:31.989Z,101975.75
2023-05-02T04:06:03.772Z,101978.31
2023-05-02T04:06:35.763Z,101979.34
2023-05-02T04:07:16.907Z,101979.34
2023-05-02T04:07:48.869Z,101984.75
2023-05-02T04:08:20.700Z,101975.19
2023-05-02T04:08:52.257Z,101982.22
2023-05-02T04:09:25.479Z,101982.03
2023-05-02T04:10:05.978Z,101983.97
2023-05-02T04:10:41.982Z,101985.19
2023-05-02T04:11:15.635Z,101984.91
2023-05-02T04:11:47.758Z,101989.13
2023-05-02T04:12:19.361Z,101991.50
2023-05-02T04:12:53.912Z,101994.44
2023-05-02T04:13:26.267Z,101998.06
2023-05-02T04:13:57.958Z,101999.38
2023-05-02T04:14:29.525Z,101995.72
2023-05-02T04:15:01.793Z,101996.00
2023-05-02T04:15:34.907Z,101996.00
2023-05-02T04:16:06.721Z,101997.38
2023-05-02T04:16:40.639Z,101999.28
2023-05-02T04:17:12.538Z,101992.88
2023-05-02T04:17:49.068Z,102004.00
2023-05-02T04:18:21.456Z,102002.19
2023-05-02T04:18:53.240Z,102002.78
2023-05-02T04:19:25.218Z,102001.53
2023-05-02T04:19:56.997Z,102006.38
2023-05-02T04:20:31.805Z,102001.34
2023-05-02T04:21:03.527Z,102001.31
2023-05-02T04:21:37.404Z,102003.09
2023-05-02T04:22:10.931Z,102006.56
2023-05-02T04:22:47.927Z,102000.84
2023-05-02T04:23:19.558Z,102016.00
2023-05-02T04:23:53.541Z,102011.34
2023-05-02T04:24:25.802Z,102014.72
2023-05-02T04:24:57.972Z,102011.56
2023-05-02T04:25:30.870Z,102014.69
2023-05-02T04:26:06.644Z,102019.19
2023-05-02T04:27:04.156Z,102012.59
2023-05-02T04:27:36.110Z,102017.47
2023-05-02T04:28:07.669Z,102021.94
2023-05-02T04:28:39.554Z,102014.00
2023-05-02T04:29:13.541Z,102024.59
2023-05-02T04:29:49.581Z,102019.97
2023-05-02T04:30:23.552Z,102017.38
2023-05-02T04:31:03.703Z,102024.72
2023-05-02T04:31:36.817Z,102019.47
2023-05-02T04:32:10.383Z,102026.06
2023-05-02T04:32:42.437Z,102034.06
2023-05-02T04:33:15.482Z,102025.19
2023-05-02T04:33:48.955Z,102030.31
2023-05-02T04:34:23.436Z,102033.50
2023-05-02T04:34:55.923Z,102029.84
2023-05-02T04:35:28.457Z,102034.81
2023-05-02T04:36:00.229Z,102031.13
2023-05-02T04:36:32.119Z,102037.28
2023-05-02T04:37:03.873Z,102035.63
2023-05-02T04:37:36.968Z,102043.25
2023-05-02T04:38:09.097Z,102044.25
2023-05-02T04:38:41.582Z,102046.44
2023-05-02T04:39:13.556Z,102042.84
2023-05-02T04:39:51.016Z,102044.03
2023-05-02T04:40:25.782Z,102045.34
2023-05-02T04:41:09.299Z,102052.94
2023-05-02T04:41:47.005Z,102049.09
2023-05-02T04:42:19.269Z,102057.63
2023-05-02T04:42:59.017Z,102060.91
2023-05-02T04:43:36.296Z,102049.63
2023-05-02T04:44:08.712Z,102049.00
2023-05-02T04:44:41.483Z,102055.66
2023-05-02T04:45:14.232Z,102057.31
2023-05-02T04:45:48.145Z,102055.97
2023-05-02T04:46:27.156Z,102061.28
2023-05-02T04:46:58.905Z,102059.34
2023-05-02T04:47:30.569Z,102072.63
2023-05-02T04:48:02.587Z,102065.31
2023-05-02T04:48:34.321Z,102072.63
2023-05-02T04:49:06.019Z,102073.63
2023-05-02T04:49:37.584Z,102075.94
2023-05-02T04:50:09.892Z,102072.75
2023-05-02T04:50:41.512Z,102076.88
2023-05-02T04:51:14.864Z,102076.88
2023-05-02T04:51:48.678Z,102068.06
2023-05-02T04:52:20.395Z,102069.72
2023-05-02T04:52:52.078Z,102080.59
2023-05-02T04:53:24.351Z,102082.31
2023-05-02T04:53:55.945Z,102085.13
2023-05-02T04:54:28.053Z,102085.28
2023-05-02T04:54:59.668Z,102076.03
2023-05-02T04:55:31.313Z,102070.72
2023-05-02T04:56:03.293Z,102076.50
2023-05-02T04:56:37.023Z,102079.69
2023-05-02T04:57:10.245Z,102084.34
2023-05-02T04:57:45.774Z,102086.59
2023-05-02T04:58:19.989Z,102081.78
2023-05-02T04:58:55.731Z,102089.06
2023-05-02T04:59:27.578Z,102081.44
2023-05-02T04:59:59.542Z,102083.09
2023-05-02T05:00:31.963Z,102081.75
2023-05-02T05:01:06.371Z,102091.25
2023-05-02T05:01:38.155Z,102090.41
2023-05-02T05:02:13.080Z,102099.03
2023-05-02T05:02:45.691Z,102100.22
2023-05-02T05:03:19.135Z,102098.78
2023-05-02T05:03:50.932Z,102099.28
2023-05-02T05:04:24.641Z,102095.44
2023-05-02T05:04:56.210Z,102095.63
2023-05-02T05:05:27.977Z,102098.75
2023-05-02T05:06:00.641Z,102096.44
2023-05-02T05:06:33.001Z,102099.22
2023-05-02T05:07:04.892Z,102093.75
2023-05-02T05:07:37.365Z,102106.72
2023-05-02T05:08:09.112Z,102096.72
2023-05-02T05:08:42.326Z,102100.69
2023-05-02T05:09:13.932Z,102098.56
2023-05-02T05:09:45.702Z,102105.03
2023-05-02T05:10:17.586Z,102101.09
2023-05-02T05:10:51.689Z,102107.06
2023-05-02T05:11:24.148Z,102105.72
2023-05-02T05:11:55.813Z,102106.06
2023-05-02T05:12:27.997Z,102107.75
2023-05-02T05:12:59.521Z,102108.47
2023-05-02T05:13:31.934Z,102114.78
2023-05-02T05:14:04.310Z,102116.06
2023-05-02T05:14:38.390Z,102111.47
2023-05-02T05:15:11.435Z,102111.47
2023-05-02T05:15:44.721Z,102115.78
2023-05-02T05:16:17.337Z,102122.38
2023-05-02T05:16:48.966Z,102111.41
2023-05-02T05:17:20.861Z,102116.72
2023-05-02T05:17:52.990Z,102123.03
2023-05-02T05:18:24.582Z,102116.06
2023-05-02T05:18:56.131Z,102118.06
2023-05-02T05:19:27.987Z,102111.41
2023-05-02T05:20:00.810Z,102124.19
2023-05-02T05:20:33.721Z,102119.38
2023-05-02T05:21:07.531Z,102125.69
2023-05-02T05:21:39.199Z,102113.59
2023-05-02T05:22:11.685Z,102122.09
2023-05-02T05:22:43.563Z,102116.09
2023-05-02T05:23:16.850Z,102121.72
2023-05-02T05:23:49.414Z,102119.59
2023-05-02T05:24:27.657Z,102122.78
2023-05-02T05:25:01.798Z,102118.97
2023-05-02T05:25:35.680Z,102121.47
2023-05-02T05:26:11.604Z,102123.75
2023-05-02T05:26:45.212Z,102123.75
2023-05-02T05:27:16.741Z,102125.59
2023-05-02T05:27:48.283Z,102128.06
2023-05-02T05:28:20.337Z,102132.38
2023-05-02T05:28:52.204Z,102122.78
2023-05-02T05:29:25.719Z,102133.38
2023-05-02T05:29:57.650Z,102136.03
2023-05-02T05:30:31.029Z,102128.75
2023-05-02T05:31:19.006Z,102140.00
2023-05-02T05:31:54.405Z,102136.19
2023-05-02T05:32:26.577Z,102136.34
2023-05-02T05:33:01.706Z,102140.66
2023-05-02T05:33:34.284Z,102139.66
2023-05-02T05:34:06.781Z,102140.66
2023-05-02T05:34:39.059Z,102144.84
2023-05-02T05:35:12.114Z,102149.31
2023-05-02T05:35:44.470Z,102137.88
2023-05-02T05:36:16.195Z,102145.00
2023-05-02T05:36:48.103Z,102147.66
2023-05-02T05:37:20.400Z,102149.66
2023-05-02T05:37:52.388Z,102149.31
2023-05-02T05:38:23.914Z,102148.66
2023-05-02T05:38:55.666Z,102143.19
2023-05-02T05:39:27.272Z,102149.63
2023-05-02T05:40:01.372Z,102154.59
2023-05-02T05:40:33.479Z,102152.28
2023-05-02T05:41:08.367Z,102149.28
2023-05-02T05:41:42.082Z,102146.16
2023-05-02T05:42:16.904Z,102162.41
2023-05-02T05:42:51.024Z,102154.25
2023-05-02T05:43:29.274Z,102153.44
2023-05-02T05:44:01.188Z,102159.25
2023-05-02T05:44:34.632Z,102152.94
2023-05-02T05:45:07.239Z,102146.16
2023-05-02T05:45:39.094Z,102154.44
2023-05-02T05:46:11.143Z,102159.25
2023-05-02T05:46:43.041Z,102152.28
2023-05-02T05:47:21.964Z,102152.97
2023-05-02T05:47:55.976Z,102159.44
2023-05-02T05:48:29.834Z,102163.56
2023-05-02T05:49:01.611Z,102157.13
2023-05-02T05:49:38.422Z,102160.09
2023-05-02T05:50:12.080Z,102174.19
2023-05-02T05:50:44.484Z,102163.91
2023-05-02T05:51:16.516Z,102160.75
2023-05-02T05:51:48.774Z,102157.94
2023-05-02T05:52:21.803Z,102166.56
2023-05-02T05:52:53.506Z,102169.56
2023-05-02T05:53:25.766Z,102167.91
2023-05-02T05:53:57.334Z,102171.22
2023-05-02T05:54:28.884Z,102167.25
2023-05-02T05:55:00.491Z,102172.03
2023-05-02T05:55:34.547Z,102162.75
2023-05-02T05:56:13.548Z,102175.53
2023-05-02T05:56:50.986Z,102168.56
2023-05-02T05:57:24.289Z,102176.84
2023-05-02T05:57:56.145Z,102177.31
2023-05-02T05:58:28.243Z,102184.97
2023-05-02T05:59:01.123Z,102182.16
2023-05-02T05:59:35.960Z,102186.13
2023-05-02T06:00:08.391Z,102185.13
2023-05-02T06:00:47.253Z,102184.81
2023-05-02T06:01:18.849Z,102194.09
2023-05-02T06:01:50.585Z,102191.94
2023-05-02T06:02:25.165Z,102183.31
2023-05-02T06:02:57.069Z,102185.13
2023-05-02T06:03:34.704Z,102188.78
2023-05-02T06:04:07.513Z,102186.59
2023-05-02T06:04:42.182Z,102188.94
2023-05-02T06:05:14.938Z,102191.09
2023-05-02T06:05:47.458Z,102189.25
2023-05-02T06:06:19.060Z,102188.09
2023-05-02T06:06:51.571Z,102199.03
2023-05-02T06:07:23.376Z,102191.38
2023-05-02T06:07:55.119Z,102196.03
2023-05-02T06:08:26.693Z,102186.94
2023-05-02T06:08:58.244Z,102192.75
2023-05-02T06:09:30.002Z,102188.41
2023-05-02T06:10:01.924Z,102199.88
2023-05-02T06:10:36.382Z,102204.84
2023-05-02T06:11:10.690Z,102195.91
2023-05-02T06:11:42.389Z,102207.53
2023-05-02T06:12:16.369Z,102196.72
2023-05-02T06:12:49.252Z,102198.03
2023-05-02T06:13:23.220Z,102199.00
2023-05-02T06:13:55.765Z,102207.69
2023-05-02T06:14:27.400Z,102203.22
2023-05-02T06:14:58.965Z,102199.41
2023-05-02T06:15:33.571Z,102211.34
2023-05-02T06:16:06.204Z,102207.34
2023-05-02T06:16:38.039Z,102206.66
2023-05-02T06:17:10.401Z,102207.31
2023-05-02T06:17:42.065Z,102210.47
2023-05-02T06:18:14.143Z,102206.97
2023-05-02T06:18:47.829Z,102213.25
2023-05-02T06:19:19.367Z,102216.03
2023-05-02T06:19:51.064Z,102222.53
2023-05-02T06:20:22.651Z,102223.22
2023-05-02T06:20:54.280Z,102209.59
2023-05-02T06:21:26.272Z,102210.25
2023-05-02T06:21:57.836Z,102218.22
2023-05-02T06:22:29.602Z,102214.91
2023-05-02T06:23:01.220Z,102219.53
2023-05-02T06:23:33.255Z,102214.22
2023-05-02T06:24:05.311Z,102218.19
2023-05-02T06:24:37.846Z,102222.47
2023-05-02T06:25:09.637Z,102219.53
2023-05-02T06:25:41.144Z,102227.84
2023-05-02T06:26:12.696Z,102221.88
2023-05-02T06:26:44.236Z,102228.84
2023-05-02T06:27:16.522Z,102225.41
2023-05-02T06:27:48.149Z,102226.41
2023-05-02T06:28:19.688Z,102223.78
2023-05-02T06:28:51.255Z,102223.28
2023-05-02T06:29:22.953Z,102231.75
2023-05-02T06:29:54.527Z,102234.22
2023-05-02T06:30:27.089Z,102239.19
2023-05-02T06:31:03.182Z,102242.84
2023-05-02T06:31:34.863Z,102238.84
2023-05-02T06:32:06.716Z,102236.19
2023-05-02T06:32:38.433Z,102237.19
2023-05-02T06:33:10.410Z,102240.50